createdAt,value
2019-05-15T00:01:48.923Z,96739.01
2019-05-15T00:04:18.773Z,96730.19
2019-05-15T00:06:48.714Z,96733.30
2019-05-15T00:09:19.067Z,96730.55
2019-05-15T00:11:48.930Z,96731.66
2019-05-15T00:14:18.638Z,96721.83
2019-05-15T00:16:48.396Z,96724.37
2019-05-15T00:19:18.751Z,96722.38
2019-05-15T00:21:48.985Z,96720.24
2019-05-15T00:24:18.889Z,96716.66
2019-05-15T00:26:48.545Z,96716.02
2019-05-15T00:29:19.747Z,96713.58
2019-05-15T00:31:49.672Z,96712.78
2019-05-15T00:34:19.262Z,96707.94
2019-05-15T00:36:49.099Z,96710.60
2019-05-15T00:39:19.113Z,96707.25
2019-05-15T00:41:54.364Z,96701.07
2019-05-15T00:44:20.222Z,96691.77
2019-05-15T00:46:49.801Z,96680.50
2019-05-15T00:49:19.390Z,96692.84
2019-05-15T00:51:49.194Z,96689.80
2019-05-15T00:54:19.300Z,96683.31
2019-05-15T00:56:49.026Z,96680.52
2019-05-15T00:59:25.944Z,96678.22
2019-05-15T01:01:49.978Z,96672.53
2019-05-15T01:04:19.566Z,96668.40
2019-05-15T01:06:52.260Z,96667.59
2019-05-15T01:09:20.501Z,96656.93
2019-05-15T01:11:50.128Z,96652.28
2019-05-15T01:14:19.720Z,96653.11
2019-05-15T01:16:49.343Z,96652.12
2019-05-15T01:19:18.933Z,96650.92
2019-05-15T01:21:48.575Z,96647.95
2019-05-15T01:24:18.890Z,96642.63
2019-05-15T01:26:49.233Z,96643.98
2019-05-15T01:29:19.079Z,96645.28
2019-05-15T01:31:49.165Z,96636.61
2019-05-15T01:34:18.809Z,96632.23
2019-05-15T01:36:49.061Z,96630.69
2019-05-15T01:39:18.738Z,96629.12
2019-05-15T01:41:49.659Z,96628.48
2019-05-15T01:44:19.439Z,96628.62
2019-05-15T01:46:49.043Z,96634.41
2019-05-15T01:49:18.848Z,96633.62
2019-05-15T01:51:48.485Z,96635.66
2019-05-15T01:54:18.789Z,96644.98
2019-05-15T01:56:49.474Z,96641.31
2019-05-15T01:59:19.278Z,96631.55
2019-05-15T02:01:48.862Z,96627.80
2019-05-15T02:04:19.707Z,96629.73
2019-05-15T02:06:49.520Z,96626.92
2019-05-15T02:09:19.107Z,96633.00
2019-05-15T02:11:49.027Z,96625.51
2019-05-15T02:14:19.119Z,96622.36
2019-05-15T02:16:48.956Z,96621.98
2019-05-15T02:19:19.371Z,96613.07
2019-05-15T02:21:49.147Z,96605.40
2019-05-15T02:24:19.129Z,96605.08
2019-05-15T02:26:48.789Z,96604.88
2019-05-15T02:29:24.702Z,96614.64
2019-05-15T02:31:50.445Z,96614.54
2019-05-15T02:34:20.234Z,96613.36
2019-05-15T02:36:49.815Z,96601.39
2019-05-15T02:39:19.513Z,96607.32
2019-05-15T02:41:49.548Z,96607.63
2019-05-15T02:44:20.134Z,96615.10
2019-05-15T02:46:50.277Z,96609.59
2019-05-15T02:49:20.024Z,96608.65
2019-05-15T02:51:49.786Z,96603.98
2019-05-15T02:54:19.795Z,96594.42
2019-05-15T02:56:49.815Z,96592.17
2019-05-15T02:59:19.787Z,96585.64
2019-05-15T03:01:49.748Z,96586.13
2019-05-15T03:04:20.068Z,96585.47
2019-05-15T03:06:50.009Z,96579.13
2019-05-15T03:09:19.730Z,96571.98
2019-05-15T03:11:49.819Z,96565.81
2019-05-15T03:14:21.499Z,96565.98
2019-05-15T03:16:50.887Z,96568.64
2019-05-15T03:19:20.555Z,96571.98
2019-05-15T03:21:50.307Z,96569.67
2019-05-15T03:24:20.444Z,96579.42
2019-05-15T03:26:50.176Z,96582.98
2019-05-15T03:29:21.202Z,96583.16
2019-05-15T03:32:06.441Z,96582.25
2019-05-15T03:34:30.895Z,96583.98
2019-05-15T03:36:54.255Z,96568.30
2019-05-15T03:39:23.910Z,96567.19
2019-05-15T03:41:53.580Z,96567.68
2019-05-15T03:44:23.289Z,96568.19
2019-05-15T03:46:53.175Z,96571.52
2019-05-15T03:49:22.834Z,96572.48
2019-05-15T03:51:52.554Z,96570.10
2019-05-15T03:54:22.327Z,96574.65
2019-05-15T03:56:51.914Z,96575.00
2019-05-15T03:59:21.537Z,96570.17
2019-05-15T04:01:51.196Z,96570.14
2019-05-15T04:04:20.812Z,96566.02
2019-05-15T04:06:50.470Z,96566.73
2019-05-15T04:09:20.383Z,96574.56
2019-05-15T04:11:50.146Z,96568.55
2019-05-15T04:14:19.957Z,96569.78
2019-05-15T04:16:49.865Z,96574.52
2019-05-15T04:19:19.661Z,96576.95
2019-05-15T04:21:49.744Z,96571.70
2019-05-15T04:24:20.868Z,96567.28
2019-05-15T04:26:51.533Z,96567.64
2019-05-15T04:29:21.119Z,96558.11
2019-05-15T04:32:00.640Z,96551.18
2019-05-15T04:34:22.085Z,96554.87
2019-05-15T04:36:51.678Z,96555.05
2019-05-15T04:39:21.395Z,96545.58
2019-05-15T04:41:50.993Z,96550.73
2019-05-15T04:44:20.619Z,96553.73
2019-05-15T04:46:50.364Z,96549.73
2019-05-15T04:49:19.983Z,96544.25
2019-05-15T04:51:49.966Z,96547.25
2019-05-15T04:54:20.236Z,96542.53
2019-05-15T04:56:50.130Z,96546.67
2019-05-15T04:59:20.053Z,96549.78
2019-05-15T05:01:53.350Z,96544.31
2019-05-15T05:04:21.403Z,96545.79
2019-05-15T05:06:51.731Z,96542.05
2019-05-15T05:09:21.961Z,96538.33
2019-05-15T05:11:51.664Z,96545.56
2019-05-15T05:14:21.344Z,96542.66
2019-05-15T05:16:50.917Z,96547.83
2019-05-15T05:19:20.548Z,96548.61
2019-05-15T05:21:50.165Z,96549.94
2019-05-15T05:24:19.777Z,96546.61
2019-05-15T05:26:49.557Z,96552.77
2019-05-15T05:29:19.418Z,96549.81
2019-05-15T05:31:49.368Z,96547.13
2019-05-15T05:34:19.464Z,96542.47
2019-05-15T05:36:49.240Z,96551.33
2019-05-15T05:39:19.944Z,96556.77
2019-05-15T05:41:49.785Z,96550.08
2019-05-15T05:44:19.543Z,96547.39
2019-05-15T05:46:49.235Z,96552.45
2019-05-15T05:49:18.823Z,96561.91
2019-05-15T05:51:48.447Z,96555.70
2019-05-15T05:54:18.361Z,96553.38
2019-05-15T05:56:48.429Z,96559.01
2019-05-15T05:59:18.559Z,96564.23
2019-05-15T06:01:48.625Z,96556.98
2019-05-15T06:04:18.718Z,96565.71
2019-05-15T06:06:53.326Z,96560.72
2019-05-15T06:09:19.835Z,96569.38
2019-05-15T06:11:49.529Z,96566.76
2019-05-15T06:14:19.151Z,96570.38
2019-05-15T06:16:48.769Z,96556.98
2019-05-15T06:19:18.412Z,96564.09
2019-05-15T06:21:56.801Z,96567.59
2019-05-15T06:24:19.394Z,96568.12
2019-05-15T06:26:49.010Z,96560.58
2019-05-15T06:29:18.646Z,96561.55
2019-05-15T06:31:48.534Z,96557.59
2019-05-15T06:34:18.200Z,96556.31
2019-05-15T06:36:48.578Z,96555.24
2019-05-15T06:39:18.369Z,96557.67
2019-05-15T06:41:48.422Z,96560.91
2019-05-15T06:44:18.748Z,96563.91
2019-05-15T06:46:48.681Z,96561.25
2019-05-15T06:49:18.288Z,96548.13
2019-05-15T06:51:48.706Z,96544.25
2019-05-15T06:54:19.042Z,96550.73
2019-05-15T06:56:49.209Z,96546.27
2019-05-15T06:59:19.100Z,96542.91
2019-05-15T07:01:48.723Z,96542.98
2019-05-15T07:04:18.386Z,96544.94
2019-05-15T07:06:48.908Z,96543.45
2019-05-15T07:09:18.713Z,96548.05
2019-05-15T07:11:48.551Z,96544.19
2019-05-15T07:14:18.314Z,96552.73
2019-05-15T07:16:48.686Z,96555.41
2019-05-15T07:19:19.171Z,96550.09
2019-05-15T07:21:48.919Z,96550.89
2019-05-15T07:24:18.655Z,96552.70
2019-05-15T07:26:48.588Z,96544.16
2019-05-15T07:29:19.015Z,96548.02
2019-05-15T07:31:49.264Z,96546.71
2019-05-15T07:34:18.958Z,96544.25
2019-05-15T07:36:49.382Z,96549.52
2019-05-15T07:39:19.091Z,96544.97
2019-05-15T07:41:48.704Z,96540.32
2019-05-15T07:44:18.976Z,96546.44
2019-05-15T07:46:48.985Z,96548.69
2019-05-15T07:49:18.760Z,96549.64
2019-05-15T07:51:48.992Z,96546.78
2019-05-15T07:54:18.801Z,96551.14
2019-05-15T07:56:48.879Z,96542.08
2019-05-15T07:59:18.843Z,96539.97
2019-05-15T08:01:48.980Z,96543.91
2019-05-15T08:04:28.127Z,96539.52
2019-05-15T08:06:50.061Z,96536.73
2019-05-15T08:09:19.691Z,96534.90
2019-05-15T08:11:49.287Z,96529.62
2019-05-15T08:14:19.052Z,96538.19
2019-05-15T08:16:48.745Z,96538.56
2019-05-15T08:19:18.567Z,96533.59
2019-05-15T08:21:51.783Z,96530.44
2019-05-15T08:24:19.601Z,96525.03
2019-05-15T08:26:49.192Z,96524.30
2019-05-15T08:29:21.547Z,96527.84
2019-05-15T08:31:50.212Z,96524.04
2019-05-15T08:34:19.911Z,96520.48
2019-05-15T08:36:49.499Z,96519.14
2019-05-15T08:39:19.194Z,96523.27
2019-05-15T08:41:48.865Z,96519.78
2019-05-15T08:44:20.700Z,96517.52
2019-05-15T08:46:50.752Z,96515.62
2019-05-15T08:49:20.812Z,96519.65
2019-05-15T08:51:50.532Z,96520.20
2019-05-15T08:54:20.126Z,96513.00
2019-05-15T08:56:50.073Z,96516.88
2019-05-15T08:59:19.699Z,96510.91
2019-05-15T09:01:49.335Z,96513.09
2019-05-15T09:04:27.894Z,96516.97
2019-05-15T09:06:50.313Z,96510.28
2019-05-15T09:09:19.909Z,96511.19
2019-05-15T09:11:49.546Z,96507.16
2019-05-15T09:14:19.268Z,96510.85
2019-05-15T09:16:49.129Z,96507.78
2019-05-15T09:19:18.772Z,96503.19
2019-05-15T09:21:49.460Z,96499.61
2019-05-15T09:24:19.878Z,96499.98
2019-05-15T09:26:49.998Z,96496.84
2019-05-15T09:29:19.706Z,96495.92
2019-05-15T09:31:49.349Z,96488.20
2019-05-15T09:34:18.976Z,96480.94
2019-05-15T09:36:48.827Z,96489.47
2019-05-15T09:39:18.555Z,96486.86
2019-05-15T09:41:48.746Z,96487.66
2019-05-15T09:44:21.840Z,96476.74
2019-05-15T09:46:50.148Z,96474.94
2019-05-15T09:49:19.772Z,96471.87
2019-05-15T09:51:49.388Z,96471.45
2019-05-15T09:54:19.340Z,96478.57
2019-05-15T09:56:49.563Z,96464.73
2019-05-15T09:59:19.282Z,96467.22
2019-05-15T10:01:48.984Z,96468.23
2019-05-15T10:04:19.170Z,96460.27
2019-05-15T10:06:49.019Z,96452.28
2019-05-15T10:09:19.150Z,96452.88
2019-05-15T10:11:49.353Z,96458.14
2019-05-15T10:14:19.641Z,96451.23
2019-05-15T10:16:50.037Z,96444.62
2019-05-15T10:19:19.761Z,96449.27
2019-05-15T10:21:52.901Z,96441.80
2019-05-15T10:24:20.887Z,96445.98
2019-05-15T10:26:50.478Z,96449.98
2019-05-15T10:29:20.107Z,96442.41
2019-05-15T10:31:49.892Z,96442.77
2019-05-15T10:34:19.518Z,96440.98
2019-05-15T10:36:49.639Z,96441.59
2019-05-15T10:39:19.453Z,96442.59
2019-05-15T10:41:49.133Z,96437.22
2019-05-15T10:44:18.720Z,96442.93
2019-05-15T10:46:48.552Z,96442.20
2019-05-15T10:49:18.899Z,96441.83
2019-05-15T10:51:48.714Z,96431.47
2019-05-15T10:54:19.168Z,96434.79
2019-05-15T10:56:49.031Z,96432.03
2019-05-15T10:59:18.625Z,96427.80
2019-05-15T11:01:48.870Z,96428.28
2019-05-15T11:04:18.540Z,96426.50
2019-05-15T11:06:49.109Z,96424.42
2019-05-15T11:09:18.819Z,96429.40
2019-05-15T11:11:51.483Z,96425.19
2019-05-15T11:14:19.762Z,96420.71
2019-05-15T11:16:49.663Z,96427.27
2019-05-15T11:19:19.324Z,96421.73
2019-05-15T11:21:48.943Z,96417.97
2019-05-15T11:24:19.585Z,96421.20
2019-05-15T11:26:50.066Z,96416.13
2019-05-15T11:29:19.773Z,96412.75
2019-05-15T11:31:49.359Z,96424.99
2019-05-15T11:34:18.997Z,96426.33
2019-05-15T11:36:48.708Z,96427.51
2019-05-15T11:39:18.437Z,96431.12
2019-05-15T11:41:49.218Z,96433.50
2019-05-15T11:44:19.368Z,96433.30
2019-05-15T11:46:49.649Z,96434.09
2019-05-15T11:49:19.531Z,96437.02
2019-05-15T11:51:49.404Z,96435.79
2019-05-15T11:54:20.569Z,96442.80
2019-05-15T11:56:50.157Z,96444.70
2019-05-15T11:59:19.778Z,96437.31
2019-05-15T12:01:49.403Z,96436.45
2019-05-15T12:04:27.724Z,96435.94
2019-05-15T12:06:58.832Z,96435.60
2019-05-15T12:09:21.739Z,96435.42
2019-05-15T12:11:51.351Z,96434.56
2019-05-15T12:14:20.969Z,96433.41
2019-05-15T12:17:05.616Z,96440.11
2019-05-15T12:19:21.917Z,96438.66
2019-05-15T12:21:51.537Z,96440.59
2019-05-15T12:24:21.131Z,96445.47
2019-05-15T12:26:50.752Z,96440.95
2019-05-15T12:29:20.380Z,96444.17
2019-05-15T12:31:50.103Z,96438.77
2019-05-15T12:34:19.677Z,96448.48
2019-05-15T12:36:56.770Z,96438.62
2019-05-15T12:39:22.276Z,96441.48
2019-05-15T13:02:02.637Z,96440.02
2019-05-15T13:04:32.271Z,96433.92
2019-05-15T13:07:12.874Z,96433.66
2019-05-15T13:09:33.181Z,96435.36
2019-05-15T13:12:02.807Z,96440.92
2019-05-15T13:14:32.405Z,96443.00
2019-05-15T13:17:02.026Z,96441.25
2019-05-15T13:19:31.619Z,96440.11
2019-05-15T13:22:01.253Z,96442.79
2019-05-15T13:24:30.848Z,96444.45
2019-05-15T13:27:00.470Z,96442.09
2019-05-15T13:29:30.069Z,96439.28
2019-05-15T13:31:59.696Z,96439.15
2019-05-15T13:34:30.626Z,96445.23
2019-05-15T13:37:00.620Z,96445.03
2019-05-15T13:39:30.221Z,96443.59
2019-05-15T13:42:00.716Z,96448.55
2019-05-15T13:44:30.321Z,96457.00
2019-05-15T13:46:59.919Z,96460.47
2019-05-15T13:49:29.547Z,96451.94
2019-05-15T13:51:59.437Z,96455.72
2019-05-15T13:54:29.153Z,96455.85
2019-05-15T13:56:58.747Z,96455.11
2019-05-15T13:59:28.748Z,96459.81
2019-05-15T14:01:59.404Z,96460.72
2019-05-15T14:04:30.000Z,96457.09
2019-05-15T14:06:59.906Z,96460.09
2019-05-15T14:09:33.777Z,96465.16
2019-05-15T14:12:00.893Z,96461.56
2019-05-15T14:14:30.489Z,96467.00
2019-05-15T14:17:00.139Z,96475.03
2019-05-15T14:19:29.737Z,96475.09
2019-05-15T14:21:59.362Z,96471.91
2019-05-15T14:24:28.955Z,96471.84
2019-05-15T14:26:59.364Z,96469.07
2019-05-15T14:29:29.304Z,96468.64
2019-05-15T14:31:58.956Z,96469.08
2019-05-15T14:34:29.129Z,96473.50
2019-05-15T14:36:59.263Z,96476.50
2019-05-15T14:39:28.924Z,96476.70
2019-05-15T14:41:58.565Z,96481.31
2019-05-15T14:44:28.164Z,96474.11
2019-05-15T14:46:58.242Z,96483.28
2019-05-15T14:49:34.420Z,96486.59
2019-05-15T14:52:08.496Z,96481.94
2019-05-15T14:54:30.875Z,96489.14
2019-05-15T14:57:00.512Z,96494.97
2019-05-15T14:59:30.104Z,96502.26
2019-05-15T15:01:59.723Z,96505.59
2019-05-15T15:04:29.315Z,96505.77
2019-05-15T15:06:58.943Z,96514.92
2019-05-15T15:09:28.538Z,96506.25
2019-05-15T15:11:58.203Z,96510.98
2019-05-15T15:14:28.512Z,96511.82
2019-05-15T15:16:58.433Z,96513.91
2019-05-15T15:19:29.291Z,96516.89
2019-05-15T15:21:59.034Z,96511.78
2019-05-15T15:24:28.723Z,96516.16
2019-05-15T15:26:58.790Z,96527.46
2019-05-15T15:29:28.623Z,96518.66
2019-05-15T15:31:58.987Z,96521.81
2019-05-15T15:34:28.626Z,96518.59
2019-05-15T15:36:58.260Z,96528.16
2019-05-15T15:39:28.170Z,96524.57
2019-05-15T15:41:57.949Z,96524.40
2019-05-15T15:44:28.015Z,96525.95
2019-05-15T15:46:59.141Z,96521.16
2019-05-15T15:49:29.162Z,96523.22
2019-05-15T15:51:58.775Z,96523.28
2019-05-15T15:54:28.397Z,96524.74
2019-05-15T15:56:57.989Z,96520.75
2019-05-15T15:59:28.907Z,96523.94
2019-05-15T16:01:59.877Z,96526.20
2019-05-15T16:04:29.642Z,96520.45
2019-05-15T16:06:59.267Z,96535.05
2019-05-15T16:09:28.856Z,96533.18
2019-05-15T16:11:58.484Z,96530.35
2019-05-15T16:14:28.627Z,96522.36
2019-05-15T16:16:58.413Z,96525.84
2019-05-15T16:19:28.477Z,96529.19
2019-05-15T16:21:59.509Z,96529.34
2019-05-15T16:24:29.422Z,96529.12
2019-05-15T16:27:00.982Z,96531.57
2019-05-15T16:29:30.352Z,96533.52
2019-05-15T16:32:00.043Z,96536.58
2019-05-15T16:34:29.638Z,96531.08
2019-05-15T16:36:59.274Z,96529.72
2019-05-15T16:39:28.864Z,96533.75
2019-05-15T16:41:59.476Z,96541.86
2019-05-15T16:44:29.187Z,96541.16
2019-05-15T16:46:58.945Z,96535.32
2019-05-15T16:49:28.618Z,96535.69
2019-05-15T16:51:58.411Z,96533.41
2019-05-15T16:54:28.932Z,96539.06
2019-05-15T16:56:59.452Z,96534.64
2019-05-15T16:59:35.573Z,96540.67
2019-05-15T17:02:00.618Z,96546.73
2019-05-15T17:04:30.219Z,96537.81
2019-05-15T17:06:59.841Z,96538.77
2019-05-15T17:09:29.439Z,96540.21
2019-05-15T17:11:59.063Z,96539.68
2019-05-15T17:14:28.920Z,96541.51
2019-05-15T17:16:58.794Z,96550.44
2019-05-15T17:19:29.349Z,96550.78
2019-05-15T17:21:59.128Z,96549.75
2019-05-15T17:24:28.771Z,96553.35
2019-05-15T17:26:59.569Z,96556.58
2019-05-15T17:29:29.511Z,96561.55
2019-05-15T17:31:59.128Z,96556.86
2019-05-15T17:34:28.878Z,96555.11
2019-05-15T17:36:58.487Z,96561.84
2019-05-15T17:39:36.769Z,96561.11
2019-05-15T17:41:59.568Z,96561.01
2019-05-15T17:44:29.167Z,96565.66
2019-05-15T17:46:58.864Z,96562.87
2019-05-15T17:49:28.459Z,96566.45
2019-05-15T17:51:58.255Z,96568.34
2019-05-15T17:54:28.755Z,96572.53
2019-05-15T17:56:58.694Z,96570.61
2019-05-15T17:59:28.782Z,96570.34
2019-05-15T18:01:59.560Z,96573.51
2019-05-15T18:04:29.399Z,96576.67
2019-05-15T18:06:59.243Z,96570.46
2019-05-15T18:09:28.908Z,96574.18
2019-05-15T18:11:58.777Z,96580.38
2019-05-15T18:14:28.531Z,96579.51
2019-05-15T18:16:58.700Z,96576.78
2019-05-15T18:19:28.439Z,96581.74
2019-05-15T18:21:59.214Z,96585.09
2019-05-15T18:24:29.144Z,96582.05
2019-05-15T18:26:58.745Z,96590.07
2019-05-15T18:29:28.546Z,96583.77
2019-05-15T18:31:58.176Z,96586.59
2019-05-15T18:34:28.720Z,96590.45
2019-05-15T18:36:58.452Z,96594.53
2019-05-15T18:39:28.431Z,96594.81
2019-05-15T18:41:58.220Z,96588.14
2019-05-15T18:44:28.416Z,96592.80
2019-05-15T18:46:58.284Z,96586.88
2019-05-15T18:49:28.531Z,96590.12
2019-05-15T18:51:58.343Z,96584.72
2019-05-15T18:54:28.128Z,96592.66
2019-05-15T18:56:58.445Z,96592.59
2019-05-15T18:59:28.367Z,96591.26
2019-05-15T19:01:58.608Z,96589.72
2019-05-15T19:04:28.881Z,96585.71
2019-05-15T19:06:58.571Z,96590.91
2019-05-15T19:09:28.285Z,96594.31
2019-05-15T19:11:58.214Z,96594.42
2019-05-15T19:14:28.084Z,96599.50
2019-05-15T19:16:59.088Z,96589.11
2019-05-15T19:19:28.873Z,96593.28
2019-05-15T19:21:58.470Z,96597.28
2019-05-15T19:24:28.096Z,96586.75
2019-05-15T19:26:58.682Z,96593.78
2019-05-15T19:29:28.565Z,96594.80
2019-05-15T19:31:58.331Z,96591.19
2019-05-15T19:34:28.210Z,96594.34
2019-05-15T19:36:58.263Z,96593.33
2019-05-15T19:39:28.088Z,96598.17
2019-05-15T19:41:58.333Z,96595.11
2019-05-15T19:44:28.490Z,96599.22
2019-05-15T19:46:58.636Z,96602.70
2019-05-15T19:49:28.315Z,96600.22
2019-05-15T19:51:58.185Z,96604.96
2019-05-15T19:54:28.887Z,96600.22
2019-05-15T19:56:58.719Z,96599.77
2019-05-15T19:59:29.435Z,96604.23
2019-05-15T20:01:59.280Z,96606.03
2019-05-15T20:04:29.071Z,96605.00
2019-05-15T20:06:58.727Z,96593.37
2019-05-15T20:09:28.345Z,96598.11
2019-05-15T20:11:58.519Z,96596.35
2019-05-15T20:14:28.805Z,96597.78
2019-05-15T20:16:59.071Z,96594.10
2019-05-15T20:19:28.867Z,96591.80
2019-05-15T20:21:58.609Z,96591.31
2019-05-15T20:24:28.782Z,96590.60
2019-05-15T20:26:58.498Z,96591.48
2019-05-15T20:29:28.941Z,96587.66
2019-05-15T20:31:58.804Z,96584.28
2019-05-15T20:34:28.805Z,96581.34
2019-05-15T20:36:58.884Z,96581.41
2019-05-15T20:39:28.564Z,96583.08
2019-05-15T20:41:58.403Z,96583.26
2019-05-15T20:44:28.050Z,96583.03
2019-05-15T20:46:58.996Z,96587.20
2019-05-15T20:49:28.860Z,96582.26
2019-05-15T20:51:58.516Z,96581.91
2019-05-15T20:54:28.522Z,96575.80
2019-05-15T20:56:58.442Z,96582.82
2019-05-15T20:59:28.093Z,96579.48
2019-05-15T21:01:59.384Z,96579.48
2019-05-15T21:04:29.085Z,96575.21
2019-05-15T21:06:58.700Z,96581.14
2019-05-15T21:09:30.496Z,96575.84
2019-05-15T21:11:59.680Z,96582.88
2019-05-15T21:14:29.289Z,96587.26
2019-05-15T21:16:59.179Z,96588.63
2019-05-15T21:19:28.752Z,96594.31
2019-05-15T21:21:58.596Z,96586.81
2019-05-15T21:24:28.418Z,96592.46
2019-05-15T21:26:58.227Z,96594.34
2019-05-15T21:29:27.863Z,96595.48
2019-05-15T21:31:58.044Z,96597.83
2019-05-15T21:34:36.881Z,96601.50
2019-05-15T21:36:59.485Z,96598.96
2019-05-15T21:39:30.240Z,96599.33
2019-05-15T21:41:59.975Z,96601.89
2019-05-15T21:44:29.559Z,96601.86
2019-05-15T21:46:59.172Z,96605.05
2019-05-15T21:49:28.830Z,96602.24
2019-05-15T21:51:58.542Z,96600.31
2019-05-15T21:54:28.337Z,96601.72
2019-05-15T21:57:07.555Z,96603.89
2019-05-15T21:59:29.292Z,96605.64
2019-05-15T22:01:59.111Z,96600.88
2019-05-15T22:04:30.523Z,96599.27
2019-05-15T22:07:00.316Z,96602.95
2019-05-15T22:09:30.343Z,96605.78
2019-05-15T22:12:01.423Z,96606.59
2019-05-15T22:14:31.164Z,96598.38
2019-05-15T22:17:00.792Z,96596.63
2019-05-15T22:19:30.421Z,96594.39
2019-05-15T22:22:00.092Z,96598.14
2019-05-15T22:24:29.994Z,96591.05
2019-05-15T22:26:59.732Z,96581.52
2019-05-15T22:29:29.342Z,96582.36
2019-05-15T22:31:59.142Z,96583.31
2019-05-15T22:34:28.995Z,96587.86
2019-05-15T22:36:58.623Z,96591.40
2019-05-15T22:39:28.243Z,96586.73
2019-05-15T22:41:58.110Z,96589.41
2019-05-15T22:44:28.173Z,96587.67
2019-05-15T22:46:58.232Z,96580.36
2019-05-15T22:49:28.846Z,96577.45
2019-05-15T22:51:58.581Z,96571.77
2019-05-15T22:54:28.194Z,96568.76
2019-05-15T22:56:58.042Z,96568.20
2019-05-15T22:59:28.355Z,96571.47
2019-05-15T23:01:58.276Z,96567.14
2019-05-15T23:04:28.714Z,96568.90
2019-05-15T23:06:58.384Z,96566.17
2019-05-15T23:09:28.438Z,96565.75
2019-05-15T23:11:58.855Z,96566.49
2019-05-15T23:14:28.789Z,96571.78
2019-05-15T23:16:59.031Z,96568.31
2019-05-15T23:19:28.763Z,96569.03
2019-05-15T23:21:59.095Z,96562.33
2019-05-15T23:24:28.751Z,96560.90
2019-05-15T23:26:58.432Z,96560.27
2019-05-15T23:29:28.040Z,96557.33
2019-05-15T23:31:58.393Z,96561.02
2019-05-15T23:34:28.138Z,96555.89
2019-05-15T23:36:57.889Z,96566.34
2019-05-15T23:39:27.487Z,96559.82
2019-05-15T23:41:58.494Z,96566.02
2019-05-15T23:44:28.164Z,96568.72
2019-05-15T23:46:57.794Z,96562.98
2019-05-15T23:49:27.887Z,96554.86
2019-05-15T23:51:58.244Z,96554.97
2019-05-15T23:54:28.012Z,96546.58
2019-05-15T23:56:58.367Z,96542.09
2019-05-15T23:59:28.266Z,96549.23
